createdAt,value
2024-05-09T00:03:33.598Z,27.1
2024-05-09T00:08:55.901Z,27.1
2024-05-09T00:14:29.769Z,27.1
2024-05-09T00:19:39.021Z,27.1
2024-05-09T00:25:12.869Z,27
2024-05-09T00:30:50.452Z,27.1
2024-05-09T00:36:15.700Z,27
2024-05-09T00:41:52.599Z,27.1
2024-05-09T00:47:15.612Z,27.1
2024-05-09T00:52:50.424Z,27.1
2024-05-09T00:57:56.467Z,27.1
2024-05-09T01:03:35.114Z,27.1
2024-05-09T01:08:58.938Z,27.1
2024-05-09T01:14:34.342Z,27.1
2024-05-09T01:19:58.323Z,27.1
2024-05-09T01:25:33.524Z,27.1
2024-05-09T01:31:23.315Z,27.1
2024-05-09T01:37:02.249Z,27.1
2024-05-09T01:42:51.660Z,27.1
2024-05-09T01:48:15.777Z,27.1
2024-05-09T01:53:48.573Z,27.1
2024-05-09T01:59:10.719Z,27.1
2024-05-09T02:05:06.842Z,27.1
2024-05-09T02:10:39.435Z,27.1
2024-05-09T02:15:46.439Z,27.1
2024-05-09T02:21:39.504Z,27.1
2024-05-09T02:27:16.270Z,27.1
2024-05-09T02:32:37.974Z,27.1
2024-05-09T02:38:18.726Z,27.1
2024-05-09T02:44:05.295Z,27.1
2024-05-09T02:49:44.714Z,27.1
2024-05-09T02:55:33.753Z,27.1
2024-05-09T03:01:24.066Z,27.1
2024-05-09T03:07:03.909Z,27.1
2024-05-09T03:12:55.520Z,27.1
2024-05-09T03:18:36.807Z,27.1
2024-05-09T03:24:22.670Z,27.1
2024-05-09T03:29:44.071Z,27
2024-05-09T03:35:21.792Z,27.1
2024-05-09T03:41:10.083Z,27.1
2024-05-09T03:46:46.880Z,27.1
2024-05-09T03:52:38.294Z,27.1
2024-05-09T03:58:16.474Z,27.1
2024-05-09T04:04:05.427Z,27.1
2024-05-09T04:09:43.177Z,27.1
2024-05-09T04:15:33.576Z,27.1
2024-05-09T04:21:25.692Z,27.1
2024-05-09T04:27:02.751Z,27.1
2024-05-09T04:32:54.485Z,27.1
2024-05-09T04:38:39.708Z,27
2024-05-09T04:44:29.798Z,26.9
2024-05-09T04:50:11.728Z,26.8
2024-05-09T04:56:13.330Z,26.6
2024-05-09T05:02:00.757Z,26.6
2024-05-09T05:07:42.217Z,26.6
2024-05-09T05:13:28.998Z,26.6
2024-05-09T05:19:09.089Z,26.6
2024-05-09T05:24:44.902Z,26.6
2024-05-09T05:30:34.263Z,26.6
2024-05-09T05:36:12.526Z,26.6
2024-05-09T05:42:02.172Z,26.6
2024-05-09T05:47:40.136Z,26.6
2024-05-09T05:53:34.191Z,26.6
2024-05-09T05:59:14.746Z,26.6
2024-05-09T06:05:08.898Z,26.6
2024-05-09T06:10:57.479Z,26.6
2024-05-09T06:16:36.667Z,26.4
2024-05-09T06:22:26.097Z,26.3
2024-05-09T06:28:05.844Z,26
2024-05-09T06:33:56.603Z,25.8
2024-05-09T06:39:34.809Z,25.7
2024-05-09T06:45:25.399Z,25.6
2024-05-09T06:51:13.443Z,25.6
2024-05-09T06:56:50.623Z,25.4
2024-05-09T07:02:41.116Z,25.4
2024-05-09T07:08:24.747Z,25.1
2024-05-09T07:14:13.187Z,24.9
2024-05-09T07:19:51.592Z,24.9
2024-05-09T07:25:26.371Z,24.8
2024-05-09T07:31:12.373Z,24.8
2024-05-09T07:36:51.146Z,24.8
2024-05-09T07:42:41.699Z,24.8
2024-05-09T07:54:58.756Z,24.7
2024-05-09T08:00:48.767Z,32.6
2024-05-09T08:06:28.130Z,31.2
2024-05-09T08:12:20.158Z,29.8
2024-05-09T08:17:58.877Z,29
2024-05-09T08:23:49.879Z,28.4
2024-05-09T08:29:13.135Z,27.9
2024-05-09T08:35:06.853Z,27.6
2024-05-09T08:41:13.817Z,27.2
2024-05-09T08:46:53.699Z,26.9
2024-05-09T08:52:48.022Z,26.6
2024-05-09T08:58:24.711Z,26.4
2024-05-09T09:04:18.570Z,26.2
2024-05-09T09:09:42.230Z,26
2024-05-09T09:15:33.277Z,25.9
2024-05-09T09:21:25.532Z,25.8
2024-05-09T09:27:03.406Z,25.6
2024-05-09T09:33:00.734Z,25.4
2024-05-09T09:38:25.556Z,25
2024-05-09T09:44:14.531Z,24.8
2024-05-09T09:49:48.203Z,24.6
2024-05-09T09:55:23.990Z,24.4
2024-05-09T10:00:58.107Z,24.3
2024-05-09T10:06:37.556Z,24.3
2024-05-09T10:12:34.942Z,24.2
2024-05-09T10:18:14.410Z,24.1
2024-05-09T10:24:05.269Z,24
2024-05-09T10:29:26.648Z,23.9
2024-05-09T10:35:17.136Z,23.9
2024-05-09T10:41:04.379Z,31.1
2024-05-09T10:46:30.044Z,28.4
2024-05-09T10:52:20.716Z,27.4
2024-05-09T10:57:57.305Z,26.9
2024-05-09T11:03:45.998Z,26.4
2024-05-09T11:09:25.202Z,26.2
2024-05-09T11:15:07.124Z,25.9
2024-05-09T11:20:59.893Z,32.4
2024-05-09T11:26:40.484Z,32.8
2024-05-09T11:32:27.488Z,33.5
2024-05-09T11:38:08.286Z,34.3
2024-05-09T11:43:59.423Z,34.9
2024-05-09T11:49:40.323Z,35.5
2024-05-09T11:55:27.949Z,36.2
2024-05-09T12:01:02.827Z,36.9
2024-05-09T12:06:42.460Z,36.8
2024-05-09T12:12:30.576Z,37.1
2024-05-09T12:18:12.941Z,37.1
2024-05-09T12:24:05.129Z,37.6
2024-05-09T12:29:27.959Z,38.1
2024-05-09T12:35:18.105Z,35.4
2024-05-09T12:40:54.505Z,35.3
2024-05-09T12:46:42.521Z,35.3
2024-05-09T12:52:37.843Z,33.6
2024-05-09T12:58:25.434Z,33.6
2024-05-09T13:04:14.652Z,33.8
2024-05-09T13:09:56.880Z,33.8
2024-05-09T13:15:40.930Z,33.9
2024-05-09T13:21:31.951Z,33.9
2024-05-09T13:27:10.235Z,33.9
2024-05-09T13:33:04.066Z,33.8
2024-05-09T13:38:26.947Z,33.5
2024-05-09T13:43:59.046Z,33.2
2024-05-09T13:49:37.515Z,33
2024-05-09T13:55:12.332Z,32.9
2024-05-09T14:01:06.144Z,32.6
2024-05-09T14:06:30.951Z,32.3
2024-05-09T14:12:21.040Z,32
2024-05-09T14:17:44.244Z,31.7
2024-05-09T14:23:34.187Z,31.4
2024-05-09T14:29:15.958Z,31.1
2024-05-09T14:35:05.692Z,30.9
2024-05-09T14:41:03.929Z,30.6
2024-05-09T14:46:42.905Z,30.4
2024-05-09T14:52:34.114Z,30.1
2024-05-09T14:58:18.279Z,29.9
2024-05-09T15:04:12.806Z,29.7
2024-05-09T15:09:52.372Z,29.4
2024-05-09T15:15:45.032Z,29.2
2024-05-09T15:21:34.560Z,28.9
2024-05-09T15:27:12.777Z,28.7
2024-05-09T15:33:00.034Z,28.2
2024-05-09T15:38:38.627Z,27.6
2024-05-09T15:44:30.936Z,27.1
2024-05-09T15:50:14.405Z,26.8
2024-05-09T15:56:02.893Z,26.5
2024-05-09T16:01:54.227Z,26.3
2024-05-09T16:07:34.389Z,26.1
2024-05-09T16:13:21.374Z,25.9
2024-05-09T16:19:00.910Z,25.8
2024-05-09T16:24:54.832Z,25.7
2024-05-09T16:30:41.547Z,25.6
2024-05-09T16:36:20.464Z,25.5
2024-05-09T16:42:15.406Z,25.4
2024-05-09T16:47:54.596Z,25.3
2024-05-09T16:53:40.133Z,25.3
2024-05-09T16:59:18.503Z,25.2
2024-05-09T17:05:16.108Z,25.1
2024-05-09T17:11:16.456Z,25.1
2024-05-09T17:16:56.686Z,25.1
2024-05-09T17:22:46.025Z,25
2024-05-09T17:28:24.903Z,24.9
2024-05-09T17:34:13.468Z,24.9
2024-05-09T17:39:51.330Z,24.9
2024-05-09T17:45:25.967Z,24.8
2024-05-09T17:51:15.823Z,24.8
2024-05-09T17:56:52.945Z,24.8
2024-05-09T18:02:52.075Z,24.7
2024-05-09T18:08:34.679Z,24.7
2024-05-09T18:14:20.914Z,24.7
2024-05-09T18:19:45.443Z,24.6
2024-05-09T18:25:39.468Z,24.6
2024-05-09T18:31:27.800Z,24.6
2024-05-09T18:37:08.327Z,24.6
2024-05-09T18:43:00.150Z,24.6
2024-05-09T18:48:47.252Z,24.5
2024-05-09T18:54:39.141Z,24.5
2024-05-09T19:00:26.174Z,24.5
2024-05-09T19:06:19.698Z,24.3
2024-05-09T19:12:05.477Z,24.1
2024-05-09T19:17:45.724Z,24
2024-05-09T19:23:44.199Z,23.9
2024-05-09T19:29:25.213Z,23.8
2024-05-09T19:35:16.020Z,23.8
2024-05-09T19:41:04.266Z,23.8
2024-05-09T19:46:45.067Z,23.7
2024-05-09T19:52:38.925Z,23.7
2024-05-09T19:58:20.181Z,23.7
2024-05-09T20:04:11.014Z,23.7
2024-05-09T20:09:49.766Z,23.7
2024-05-09T20:15:38.719Z,23.6
2024-05-09T20:21:16.994Z,23.6
2024-05-09T20:26:53.794Z,23.6
2024-05-09T20:32:42.097Z,23.6
2024-05-09T20:38:20.875Z,23.6
2024-05-09T20:44:08.546Z,23.6
2024-05-09T20:49:46.810Z,23.6
2024-05-09T20:55:37.886Z,23.6
2024-05-09T21:01:30.677Z,23.6
2024-05-09T21:07:14.327Z,23.6
2024-05-09T21:12:56.227Z,23.6
2024-05-09T21:18:34.252Z,23.5
2024-05-09T21:24:15.955Z,23.5
2024-05-09T21:29:53.638Z,23.5
2024-05-09T21:35:31.846Z,23.5
2024-05-09T21:41:21.069Z,23.5
2024-05-09T21:46:58.997Z,23.5
2024-05-09T21:52:49.087Z,23.5
2024-05-09T21:58:26.036Z,23.5
2024-05-09T22:04:19.182Z,23.5
2024-05-09T22:09:57.675Z,23.5
2024-05-09T22:15:51.275Z,23.5
2024-05-09T22:21:44.032Z,23.5
2024-05-09T22:27:24.188Z,23.5
2024-05-09T22:33:10.109Z,23.4
2024-05-09T22:38:53.528Z,23.4
2024-05-09T22:44:47.259Z,23.4
2024-05-09T22:50:33.175Z,23.4
2024-05-09T22:55:55.907Z,23.4
2024-05-09T23:01:43.176Z,23.4
2024-05-09T23:07:22.414Z,23.4
2024-05-09T23:13:08.882Z,23.4
2024-05-09T23:18:48.160Z,23.4
2024-05-09T23:24:35.597Z,23.4
2024-05-09T23:30:18.287Z,23.4
2024-05-09T23:36:05.821Z,23.4
2024-05-09T23:41:59.841Z,23.4
2024-05-09T23:47:40.042Z,23.4
2024-05-09T23:53:30.076Z,23.4
2024-05-09T23:59:07.333Z,23.4
